sensor_id;sensor_type;location;lat;lon;timestamp;temperature;humidity
26641;DHT22;14269;47.358;0.724;2023-02-28T00:00:57;3.0;52.0
26641;DHT22;14269;47.358;0.724;2023-02-28T00:03:29;3.0;51.0
26641;DHT22;14269;47.358;0.724;2023-02-28T00:06:01;3.0;52.0
26641;DHT22;14269;47.358;0.724;2023-02-28T00:08:32;3.0;52.0
26641;DHT22;14269;47.358;0.724;2023-02-28T00:11:06;3.0;52.0
26641;DHT22;14269;47.358;0.724;2023-02-28T00:13:47;3.0;52.0
26641;DHT22;14269;47.358;0.724;2023-02-28T00:16:27;3.0;52.0
26641;DHT22;14269;47.358;0.724;2023-02-28T00:18:59;3.0;53.0
26641;DHT22;14269;47.358;0.724;2023-02-28T00:21:30;3.0;53.0
26641;DHT22;14269;47.358;0.724;2023-02-28T00:24:02;3.0;53.0
26641;DHT22;14269;47.358;0.724;2023-02-28T00:26:34;3.0;53.0
26641;DHT22;14269;47.358;0.724;2023-02-28T00:29:05;3.0;53.0
26641;DHT22;14269;47.358;0.724;2023-02-28T00:31:37;3.0;53.0
26641;DHT22;14269;47.358;0.724;2023-02-28T00:34:09;3.0;53.0
26641;DHT22;14269;47.358;0.724;2023-02-28T00:36:43;3.0;53.0
26641;DHT22;14269;47.358;0.724;2023-02-28T00:39:22;3.0;52.0
26641;DHT22;14269;47.358;0.724;2023-02-28T00:41:54;3.0;53.0
26641;DHT22;14269;47.358;0.724;2023-02-28T00:44:25;3.0;52.0
26641;DHT22;14269;47.358;0.724;2023-02-28T00:46:58;3.0;52.0
26641;DHT22;14269;47.358;0.724;2023-02-28T00:49:29;3.0;52.0
26641;DHT22;14269;47.358;0.724;2023-02-28T00:52:00;3.0;52.0
26641;DHT22;14269;47.358;0.724;2023-02-28T00:54:32;3.0;52.0
26641;DHT22;14269;47.358;0.724;2023-02-28T00:57:04;3.0;53.0
26641;DHT22;14269;47.358;0.724;2023-02-28T00:59:35;3.0;53.0
26641;DHT22;14269;47.358;0.724;2023-02-28T01:02:07;3.0;53.0
26641;DHT22;14269;47.358;0.724;2023-02-28T01:04:38;3.0;53.0
26641;DHT22;14269;47.358;0.724;2023-02-28T01:07:10;3.0;53.0
26641;DHT22;14269;47.358;0.724;2023-02-28T01:09:42;3.0;54.0
26641;DHT22;14269;47.358;0.724;2023-02-28T01:12:13;3.0;54.0
26641;DHT22;14269;47.358;0.724;2023-02-28T01:14:45;3.0;55.0
26641;DHT22;14269;47.358;0.724;2023-02-28T01:17:17;3.0;54.0
26641;DHT22;14269;47.358;0.724;2023-02-28T01:19:48;3.0;54.0
26641;DHT22;14269;47.358;0.724;2023-02-28T01:22:20;2.0;55.0
26641;DHT22;14269;47.358;0.724;2023-02-28T01:24:52;3.0;54.0
26641;DHT22;14269;47.358;0.724;2023-02-28T01:27:23;3.0;54.0
26641;DHT22;14269;47.358;0.724;2023-02-28T01:29:55;2.0;55.0
26641;DHT22;14269;47.358;0.724;2023-02-28T01:32:27;2.0;55.0
26641;DHT22;14269;47.358;0.724;2023-02-28T01:34:58;2.0;55.0
26641;DHT22;14269;47.358;0.724;2023-02-28T01:37:30;2.0;55.0
26641;DHT22;14269;47.358;0.724;2023-02-28T01:40:02;2.0;55.0
26641;DHT22;14269;47.358;0.724;2023-02-28T01:42:33;2.0;55.0
26641;DHT22;14269;47.358;0.724;2023-02-28T01:45:18;2.0;55.0
26641;DHT22;14269;47.358;0.724;2023-02-28T01:48:00;2.0;56.0
26641;DHT22;14269;47.358;0.724;2023-02-28T01:50:41;2.0;56.0
26641;DHT22;14269;47.358;0.724;2023-02-28T01:53:24;2.0;56.0
26641;DHT22;14269;47.358;0.724;2023-02-28T01:56:04;2.0;56.0
26641;DHT22;14269;47.358;0.724;2023-02-28T01:58:44;2.0;56.0
26641;DHT22;14269;47.358;0.724;2023-02-28T02:01:21;2.0;55.0
26641;DHT22;14269;47.358;0.724;2023-02-28T02:03:59;2.0;55.0
26641;DHT22;14269;47.358;0.724;2023-02-28T02:06:43;2.0;56.0
26641;DHT22;14269;47.358;0.724;2023-02-28T02:09:21;2.0;56.0
26641;DHT22;14269;47.358;0.724;2023-02-28T02:11:55;2.0;55.0
26641;DHT22;14269;47.358;0.724;2023-02-28T02:14:51;2.0;55.0
26641;DHT22;14269;47.358;0.724;2023-02-28T02:17:32;2.0;56.0
26641;DHT22;14269;47.358;0.724;2023-02-28T02:22:43;2.0;56.0
26641;DHT22;14269;47.358;0.724;2023-02-28T02:25:26;2.0;56.0
26641;DHT22;14269;47.358;0.724;2023-02-28T02:29:30;2.0;56.0
26641;DHT22;14269;47.358;0.724;2023-02-28T02:32:28;2.0;56.0
26641;DHT22;14269;47.358;0.724;2023-02-28T02:35:13;2.0;56.0
26641;DHT22;14269;47.358;0.724;2023-02-28T02:37:52;2.0;56.0
26641;DHT22;14269;47.358;0.724;2023-02-28T02:40:35;2.0;55.0
26641;DHT22;14269;47.358;0.724;2023-02-28T02:43:16;2.0;55.0
26641;DHT22;14269;47.358;0.724;2023-02-28T02:45:56;2.0;55.0
26641;DHT22;14269;47.358;0.724;2023-02-28T02:48:38;2.0;55.0
26641;DHT22;14269;47.358;0.724;2023-02-28T02:51:20;2.0;55.0
26641;DHT22;14269;47.358;0.724;2023-02-28T02:54:03;2.0;55.0
26641;DHT22;14269;47.358;0.724;2023-02-28T02:56:43;2.0;55.0
26641;DHT22;14269;47.358;0.724;2023-02-28T02:59:24;2.0;55.0
26641;DHT22;14269;47.358;0.724;2023-02-28T03:02:08;2.0;56.0
26641;DHT22;14269;47.358;0.724;2023-02-28T03:04:51;2.0;55.0
26641;DHT22;14269;47.358;0.724;2023-02-28T03:07:28;2.0;56.0
26641;DHT22;14269;47.358;0.724;2023-02-28T03:10:01;2.0;56.0
26641;DHT22;14269;47.358;0.724;2023-02-28T03:12:39;2.0;55.0
26641;DHT22;14269;47.358;0.724;2023-02-28T03:15:20;2.0;55.0
26641;DHT22;14269;47.358;0.724;2023-02-28T03:18:08;2.0;55.0
26641;DHT22;14269;47.358;0.724;2023-02-28T03:20:54;2.0;56.0
26641;DHT22;14269;47.358;0.724;2023-02-28T03:23:44;2.0;56.0
26641;DHT22;14269;47.358;0.724;2023-02-28T03:26:23;2.0;56.0
26641;DHT22;14269;47.358;0.724;2023-02-28T03:29:06;2.0;56.0
26641;DHT22;14269;47.358;0.724;2023-02-28T03:31:49;2.0;55.0
26641;DHT22;14269;47.358;0.724;2023-02-28T03:34:30;2.0;55.0
26641;DHT22;14269;47.358;0.724;2023-02-28T03:37:11;2.0;55.0
26641;DHT22;14269;47.358;0.724;2023-02-28T03:39:54;2.0;56.0
26641;DHT22;14269;47.358;0.724;2023-02-28T03:42:34;2.0;56.0
26641;DHT22;14269;47.358;0.724;2023-02-28T03:45:16;2.0;57.0
26641;DHT22;14269;47.358;0.724;2023-02-28T03:47:59;2.0;56.0
26641;DHT22;14269;47.358;0.724;2023-02-28T03:50:40;2.0;56.0
26641;DHT22;14269;47.358;0.724;2023-02-28T03:53:22;2.0;56.0
26641;DHT22;14269;47.358;0.724;2023-02-28T03:56:05;2.0;56.0
26641;DHT22;14269;47.358;0.724;2023-02-28T03:58:45;2.0;57.0
26641;DHT22;14269;47.358;0.724;2023-02-28T04:01:27;2.0;57.0
26641;DHT22;14269;47.358;0.724;2023-02-28T04:04:05;2.0;57.0
26641;DHT22;14269;47.358;0.724;2023-02-28T04:06:37;2.0;57.0
26641;DHT22;14269;47.358;0.724;2023-02-28T04:09:11;2.0;57.0
26641;DHT22;14269;47.358;0.724;2023-02-28T04:11:52;2.0;57.0
26641;DHT22;14269;47.358;0.724;2023-02-28T04:14:32;2.0;57.0
26641;DHT22;14269;47.358;0.724;2023-02-28T04:17:04;2.0;58.0
26641;DHT22;14269;47.358;0.724;2023-02-28T04:19:36;2.0;58.0
26641;DHT22;14269;47.358;0.724;2023-02-28T04:22:08;2.0;57.0
26641;DHT22;14269;47.358;0.724;2023-02-28T04:24:41;2.0;57.0
26641;DHT22;14269;47.358;0.724;2023-02-28T04:27:21;2.0;57.0
26641;DHT22;14269;47.358;0.724;2023-02-28T04:29:52;2.0;57.0
26641;DHT22;14269;47.358;0.724;2023-02-28T04:32:24;2.0;57.0
26641;DHT22;14269;47.358;0.724;2023-02-28T04:34:55;2.0;57.0
26641;DHT22;14269;47.358;0.724;2023-02-28T04:37:28;2.0;57.0
26641;DHT22;14269;47.358;0.724;2023-02-28T04:40:10;2.0;58.0
26641;DHT22;14269;47.358;0.724;2023-02-28T04:42:51;2.0;58.0
26641;DHT22;14269;47.358;0.724;2023-02-28T04:45:22;2.0;57.0
26641;DHT22;14269;47.358;0.724;2023-02-28T04:47:54;2.0;57.0
26641;DHT22;14269;47.358;0.724;2023-02-28T04:50:25;2.0;58.0
26641;DHT22;14269;47.358;0.724;2023-02-28T04:52:57;2.0;58.0
26641;DHT22;14269;47.358;0.724;2023-02-28T04:55:29;2.0;58.0
26641;DHT22;14269;47.358;0.724;2023-02-28T04:58:01;2.0;58.0
26641;DHT22;14269;47.358;0.724;2023-02-28T05:00:32;2.0;58.0
26641;DHT22;14269;47.358;0.724;2023-02-28T05:03:04;2.0;58.0
26641;DHT22;14269;47.358;0.724;2023-02-28T05:05:35;2.0;57.0
26641;DHT22;14269;47.358;0.724;2023-02-28T05:08:07;2.0;57.0
26641;DHT22;14269;47.358;0.724;2023-02-28T05:10:39;2.0;57.0
26641;DHT22;14269;47.358;0.724;2023-02-28T05:13:11;2.0;57.0
26641;DHT22;14269;47.358;0.724;2023-02-28T05:15:42;2.0;56.0
26641;DHT22;14269;47.358;0.724;2023-02-28T05:18:14;2.0;56.0
26641;DHT22;14269;47.358;0.724;2023-02-28T05:20:45;2.0;56.0
26641;DHT22;14269;47.358;0.724;2023-02-28T05:23:17;2.0;56.0
26641;DHT22;14269;47.358;0.724;2023-02-28T05:25:59;2.0;55.0
26641;DHT22;14269;47.358;0.724;2023-02-28T05:28:30;2.0;56.0
26641;DHT22;14269;47.358;0.724;2023-02-28T05:31:02;2.0;57.0
26641;DHT22;14269;47.358;0.724;2023-02-28T05:33:34;2.0;56.0
26641;DHT22;14269;47.358;0.724;2023-02-28T05:36:06;2.0;56.0
26641;DHT22;14269;47.358;0.724;2023-02-28T05:38:48;2.0;56.0
26641;DHT22;14269;47.358;0.724;2023-02-28T05:41:29;2.0;57.0
26641;DHT22;14269;47.358;0.724;2023-02-28T05:44:01;2.0;57.0
26641;DHT22;14269;47.358;0.724;2023-02-28T05:46:32;2.0;57.0
26641;DHT22;14269;47.358;0.724;2023-02-28T05:49:04;2.0;57.0
26641;DHT22;14269;47.358;0.724;2023-02-28T05:51:39;2.0;57.0
26641;DHT22;14269;47.358;0.724;2023-02-28T05:54:17;2.0;57.0
26641;DHT22;14269;47.358;0.724;2023-02-28T05:56:49;1.0;58.0
26641;DHT22;14269;47.358;0.724;2023-02-28T05:59:20;1.0;58.0
26641;DHT22;14269;47.358;0.724;2023-02-28T06:01:53;2.0;57.0
26641;DHT22;14269;47.358;0.724;2023-02-28T06:04:24;2.0;58.0
26641;DHT22;14269;47.358;0.724;2023-02-28T06:06:57;2.0;57.0
26641;DHT22;14269;47.358;0.724;2023-02-28T06:09:38;1.0;57.0
26641;DHT22;14269;47.358;0.724;2023-02-28T06:12:10;1.0;58.0
26641;DHT22;14269;47.358;0.724;2023-02-28T06:14:50;1.0;58.0
26641;DHT22;14269;47.358;0.724;2023-02-28T06:17:22;1.0;58.0
26641;DHT22;14269;47.358;0.724;2023-02-28T06:19:54;1.0;58.0
26641;DHT22;14269;47.358;0.724;2023-02-28T06:22:25;1.0;58.0
26641;DHT22;14269;47.358;0.724;2023-02-28T06:24:57;1.0;58.0
26641;DHT22;14269;47.358;0.724;2023-02-28T06:27:30;1.0;58.0
26641;DHT22;14269;47.358;0.724;2023-02-28T06:30:00;1.0;58.0
26641;DHT22;14269;47.358;0.724;2023-02-28T06:32:32;1.0;58.0
26641;DHT22;14269;47.358;0.724;2023-02-28T06:35:04;1.0;57.0
26641;DHT22;14269;47.358;0.724;2023-02-28T06:37:35;1.0;58.0
26641;DHT22;14269;47.358;0.724;2023-02-28T06:40:09;1.0;58.0
26641;DHT22;14269;47.358;0.724;2023-02-28T06:42:49;1.0;58.0
26641;DHT22;14269;47.358;0.724;2023-02-28T06:45:20;1.0;57.0
26641;DHT22;14269;47.358;0.724;2023-02-28T06:47:53;1.0;58.0
26641;DHT22;14269;47.358;0.724;2023-02-28T06:50:24;1.0;58.0
26641;DHT22;14269;47.358;0.724;2023-02-28T06:52:55;1.0;58.0
26641;DHT22;14269;47.358;0.724;2023-02-28T06:55:27;1.0;58.0
26641;DHT22;14269;47.358;0.724;2023-02-28T06:57:59;2.0;57.0
26641;DHT22;14269;47.358;0.724;2023-02-28T07:00:30;2.0;57.0
26641;DHT22;14269;47.358;0.724;2023-02-28T07:03:02;2.0;57.0
26641;DHT22;14269;47.358;0.724;2023-02-28T07:05:34;2.0;57.0
26641;DHT22;14269;47.358;0.724;2023-02-28T07:08:06;2.0;57.0
26641;DHT22;14269;47.358;0.724;2023-02-28T07:10:37;2.0;58.0
26641;DHT22;14269;47.358;0.724;2023-02-28T07:13:09;2.0;57.0
26641;DHT22;14269;47.358;0.724;2023-02-28T07:15:40;2.0;57.0
26641;DHT22;14269;47.358;0.724;2023-02-28T07:18:12;2.0;58.0
26641;DHT22;14269;47.358;0.724;2023-02-28T07:20:43;2.0;58.0
26641;DHT22;14269;47.358;0.724;2023-02-28T07:23:15;2.0;58.0
26641;DHT22;14269;47.358;0.724;2023-02-28T07:25:47;2.0;57.0
26641;DHT22;14269;47.358;0.724;2023-02-28T07:28:18;2.0;58.0
26641;DHT22;14269;47.358;0.724;2023-02-28T07:30:50;2.0;58.0
26641;DHT22;14269;47.358;0.724;2023-02-28T07:33:22;2.0;58.0
26641;DHT22;14269;47.358;0.724;2023-02-28T07:36:05;2.0;58.0
26641;DHT22;14269;47.358;0.724;2023-02-28T07:38:48;2.0;58.0
26641;DHT22;14269;47.358;0.724;2023-02-28T07:41:29;2.0;58.0
26641;DHT22;14269;47.358;0.724;2023-02-28T07:44:09;2.0;57.0
26641;DHT22;14269;47.358;0.724;2023-02-28T07:46:40;2.0;56.0
26641;DHT22;14269;47.358;0.724;2023-02-28T07:49:12;2.0;57.0
26641;DHT22;14269;47.358;0.724;2023-02-28T07:51:44;2.0;57.0
26641;DHT22;14269;47.358;0.724;2023-02-28T07:54:15;3.0;56.0
26641;DHT22;14269;47.358;0.724;2023-02-28T07:56:47;3.0;56.0
26641;DHT22;14269;47.358;0.724;2023-02-28T07:59:18;3.0;56.0
26641;DHT22;14269;47.358;0.724;2023-02-28T08:01:51;3.0;56.0
26641;DHT22;14269;47.358;0.724;2023-02-28T08:04:22;3.0;54.0
26641;DHT22;14269;47.358;0.724;2023-02-28T08:06:53;3.0;54.0
26641;DHT22;14269;47.358;0.724;2023-02-28T08:09:35;4.0;52.0
26641;DHT22;14269;47.358;0.724;2023-02-28T08:12:07;4.0;51.0
26641;DHT22;14269;47.358;0.724;2023-02-28T08:14:39;4.0;51.0
26641;DHT22;14269;47.358;0.724;2023-02-28T08:17:11;4.0;50.0
26641;DHT22;14269;47.358;0.724;2023-02-28T08:19:42;4.0;50.0
26641;DHT22;14269;47.358;0.724;2023-02-28T08:22:24;5.0;48.0
26641;DHT22;14269;47.358;0.724;2023-02-28T08:24:55;5.0;48.0
26641;DHT22;14269;47.358;0.724;2023-02-28T08:27:27;5.0;47.0
26641;DHT22;14269;47.358;0.724;2023-02-28T08:29:58;6.0;46.0
26641;DHT22;14269;47.358;0.724;2023-02-28T08:32:32;5.0;46.0
26641;DHT22;14269;47.358;0.724;2023-02-28T08:35:12;6.0;46.0
26641;DHT22;14269;47.358;0.724;2023-02-28T08:37:44;6.0;46.0
26641;DHT22;14269;47.358;0.724;2023-02-28T08:40:18;6.0;45.0
26641;DHT22;14269;47.358;0.724;2023-02-28T08:42:58;6.0;45.0
26641;DHT22;14269;47.358;0.724;2023-02-28T08:45:39;6.0;43.0
26641;DHT22;14269;47.358;0.724;2023-02-28T08:48:10;6.0;44.0
26641;DHT22;14269;47.358;0.724;2023-02-28T08:50:42;7.0;44.0
26641;DHT22;14269;47.358;0.724;2023-02-28T08:53:14;7.0;42.0
26641;DHT22;14269;47.358;0.724;2023-02-28T08:55:46;7.0;42.0
26641;DHT22;14269;47.358;0.724;2023-02-28T08:58:17;7.0;42.0
26641;DHT22;14269;47.358;0.724;2023-02-28T09:00:49;7.0;40.0
26641;DHT22;14269;47.358;0.724;2023-02-28T09:03:21;8.0;39.0
26641;DHT22;14269;47.358;0.724;2023-02-28T09:05:55;8.0;40.0
26641;DHT22;14269;47.358;0.724;2023-02-28T09:08:34;9.0;38.0
26641;DHT22;14269;47.358;0.724;2023-02-28T09:11:06;9.0;37.0
26641;DHT22;14269;47.358;0.724;2023-02-28T09:13:38;9.0;37.0
26641;DHT22;14269;47.358;0.724;2023-02-28T09:16:11;9.0;38.0
26641;DHT22;14269;47.358;0.724;2023-02-28T09:18:50;9.0;38.0
26641;DHT22;14269;47.358;0.724;2023-02-28T09:21:22;9.0;37.0
26641;DHT22;14269;47.358;0.724;2023-02-28T09:23:54;9.0;36.0
26641;DHT22;14269;47.358;0.724;2023-02-28T09:26:27;9.0;36.0
26641;DHT22;14269;47.358;0.724;2023-02-28T09:29:07;9.0;36.0
26641;DHT22;14269;47.358;0.724;2023-02-28T09:31:39;10.0;34.0
26641;DHT22;14269;47.358;0.724;2023-02-28T09:34:10;11.0;33.0
26641;DHT22;14269;47.358;0.724;2023-02-28T09:36:42;11.0;32.0
26641;DHT22;14269;47.358;0.724;2023-02-28T09:39:15;11.0;31.0
26641;DHT22;14269;47.358;0.724;2023-02-28T09:41:56;10.0;33.0
26641;DHT22;14269;47.358;0.724;2023-02-28T09:44:30;10.0;34.0
26641;DHT22;14269;47.358;0.724;2023-02-28T09:47:13;9.0;33.0
26641;DHT22;14269;47.358;0.724;2023-02-28T09:49:51;9.0;33.0
26641;DHT22;14269;47.358;0.724;2023-02-28T09:52:28;10.0;32.0
26641;DHT22;14269;47.358;0.724;2023-02-28T09:55:19;11.0;30.0
26641;DHT22;14269;47.358;0.724;2023-02-28T09:57:56;12.0;29.0
26641;DHT22;14269;47.358;0.724;2023-02-28T10:00:40;12.0;29.0
26641;DHT22;14269;47.358;0.724;2023-02-28T10:03:29;12.0;28.0
26641;DHT22;14269;47.358;0.724;2023-02-28T10:06:07;13.0;27.0
26641;DHT22;14269;47.358;0.724;2023-02-28T10:08:47;12.0;27.0
26641;DHT22;14269;47.358;0.724;2023-02-28T10:11:25;13.0;29.0
26641;DHT22;14269;47.358;0.724;2023-02-28T10:14:11;14.0;25.0
26641;DHT22;14269;47.358;0.724;2023-02-28T10:16:53;13.0;26.0
26641;DHT22;14269;47.358;0.724;2023-02-28T10:19:38;13.0;25.0
26641;DHT22;14269;47.358;0.724;2023-02-28T10:22:15;13.0;24.0
26641;DHT22;14269;47.358;0.724;2023-02-28T10:24:56;14.0;23.0
26641;DHT22;14269;47.358;0.724;2023-02-28T10:27:35;15.0;23.0
26641;DHT22;14269;47.358;0.724;2023-02-28T10:30:10;14.0;22.0
26641;DHT22;14269;47.358;0.724;2023-02-28T10:32:50;14.0;23.0
26641;DHT22;14269;47.358;0.724;2023-02-28T10:35:31;14.0;23.0
26641;DHT22;14269;47.358;0.724;2023-02-28T10:38:16;13.0;26.0
26641;DHT22;14269;47.358;0.724;2023-02-28T10:41:05;12.0;26.0
26641;DHT22;14269;47.358;0.724;2023-02-28T10:43:46;12.0;27.0
26641;DHT22;14269;47.358;0.724;2023-02-28T10:46:25;13.0;24.0
26641;DHT22;14269;47.358;0.724;2023-02-28T10:49:02;14.0;23.0
26641;DHT22;14269;47.358;0.724;2023-02-28T10:51:41;14.0;22.0
26641;DHT22;14269;47.358;0.724;2023-02-28T10:54:18;15.0;23.0
26641;DHT22;14269;47.358;0.724;2023-02-28T10:57:17;14.0;23.0
26641;DHT22;14269;47.358;0.724;2023-02-28T11:00:15;15.0;22.0
26641;DHT22;14269;47.358;0.724;2023-02-28T11:02:48;15.0;22.0
26641;DHT22;14269;47.358;0.724;2023-02-28T11:05:30;14.0;22.0
26641;DHT22;14269;47.358;0.724;2023-02-28T11:08:06;13.0;24.0
26641;DHT22;14269;47.358;0.724;2023-02-28T11:10:46;11.0;26.0
26641;DHT22;14269;47.358;0.724;2023-02-28T11:13:28;10.0;27.0
26641;DHT22;14269;47.358;0.724;2023-02-28T11:16:09;10.0;27.0
26641;DHT22;14269;47.358;0.724;2023-02-28T11:18:50;10.0;28.0
26641;DHT22;14269;47.358;0.724;2023-02-28T11:21:34;10.0;28.0
26641;DHT22;14269;47.358;0.724;2023-02-28T11:24:20;11.0;27.0
26641;DHT22;14269;47.358;0.724;2023-02-28T11:26:55;12.0;25.0
26641;DHT22;14269;47.358;0.724;2023-02-28T11:29:46;12.0;25.0
26641;DHT22;14269;47.358;0.724;2023-02-28T11:32:20;12.0;24.0
26641;DHT22;14269;47.358;0.724;2023-02-28T11:35:02;11.0;24.0
26641;DHT22;14269;47.358;0.724;2023-02-28T11:37:41;12.0;24.0
26641;DHT22;14269;47.358;0.724;2023-02-28T11:40:14;12.0;24.0
26641;DHT22;14269;47.358;0.724;2023-02-28T11:43:01;13.0;25.0
26641;DHT22;14269;47.358;0.724;2023-02-28T11:45:45;12.0;26.0
26641;DHT22;14269;47.358;0.724;2023-02-28T11:48:33;12.0;26.0
26641;DHT22;14269;47.358;0.724;2023-02-28T11:51:16;12.0;26.0
26641;DHT22;14269;47.358;0.724;2023-02-28T11:54:05;12.0;26.0
26641;DHT22;14269;47.358;0.724;2023-02-28T11:56:46;12.0;25.0
26641;DHT22;14269;47.358;0.724;2023-02-28T11:59:37;13.0;25.0
26641;DHT22;14269;47.358;0.724;2023-02-28T12:02:26;14.0;24.0
26641;DHT22;14269;47.358;0.724;2023-02-28T12:05:22;15.0;24.0
26641;DHT22;14269;47.358;0.724;2023-02-28T12:08:09;14.0;23.0
26641;DHT22;14269;47.358;0.724;2023-02-28T12:10:52;13.0;26.0
26641;DHT22;14269;47.358;0.724;2023-02-28T12:13:43;10.0;29.0
26641;DHT22;14269;47.358;0.724;2023-02-28T12:16:43;9.0;29.0
26641;DHT22;14269;47.358;0.724;2023-02-28T12:19:20;10.0;28.0
26641;DHT22;14269;47.358;0.724;2023-02-28T12:22:12;11.0;27.0
26641;DHT22;14269;47.358;0.724;2023-02-28T12:25:17;13.0;24.0
26641;DHT22;14269;47.358;0.724;2023-02-28T12:27:54;13.0;23.0
26641;DHT22;14269;47.358;0.724;2023-02-28T12:30:28;12.0;26.0
26641;DHT22;14269;47.358;0.724;2023-02-28T12:33:09;13.0;24.0
26641;DHT22;14269;47.358;0.724;2023-02-28T12:35:52;12.0;26.0
26641;DHT22;14269;47.358;0.724;2023-02-28T12:38:35;11.0;28.0
26641;DHT22;14269;47.358;0.724;2023-02-28T12:41:14;11.0;28.0
26641;DHT22;14269;47.358;0.724;2023-02-28T12:44:01;11.0;28.0
26641;DHT22;14269;47.358;0.724;2023-02-28T12:46:40;12.0;29.0
26641;DHT22;14269;47.358;0.724;2023-02-28T12:49:21;11.0;27.0
26641;DHT22;14269;47.358;0.724;2023-02-28T12:52:01;11.0;29.0
26641;DHT22;14269;47.358;0.724;2023-02-28T12:54:48;11.0;29.0
26641;DHT22;14269;47.358;0.724;2023-02-28T12:57:31;11.0;28.0
26641;DHT22;14269;47.358;0.724;2023-02-28T13:00:13;10.0;29.0
26641;DHT22;14269;47.358;0.724;2023-02-28T13:03:45;9.0;31.0
26641;DHT22;14269;47.358;0.724;2023-02-28T13:06:40;9.0;32.0
26641;DHT22;14269;47.358;0.724;2023-02-28T13:09:21;9.0;32.0
26641;DHT22;14269;47.358;0.724;2023-02-28T13:11:53;8.0;32.0
26641;DHT22;14269;47.358;0.724;2023-02-28T13:14:36;8.0;32.0
26641;DHT22;14269;47.358;0.724;2023-02-28T13:17:20;8.0;33.0
26641;DHT22;14269;47.358;0.724;2023-02-28T13:19:58;10.0;31.0
26641;DHT22;14269;47.358;0.724;2023-02-28T13:22:41;11.0;29.0
26641;DHT22;14269;47.358;0.724;2023-02-28T13:25:53;11.0;28.0
26641;DHT22;14269;47.358;0.724;2023-02-28T13:29:21;10.0;29.0
26641;DHT22;14269;47.358;0.724;2023-02-28T13:32:37;11.0;28.0
26641;DHT22;14269;47.358;0.724;2023-02-28T13:36:07;11.0;28.0
26641;DHT22;14269;47.358;0.724;2023-02-28T13:38:41;11.0;28.0
26641;DHT22;14269;47.358;0.724;2023-02-28T13:41:53;12.0;27.0
26641;DHT22;14269;47.358;0.724;2023-02-28T13:45:20;12.0;26.0
26641;DHT22;14269;47.358;0.724;2023-02-28T13:47:59;10.0;28.0
26641;DHT22;14269;47.358;0.724;2023-02-28T13:50:38;9.0;30.0
26641;DHT22;14269;47.358;0.724;2023-02-28T13:53:33;10.0;29.0
26641;DHT22;14269;47.358;0.724;2023-02-28T13:56:23;11.0;28.0
26641;DHT22;14269;47.358;0.724;2023-02-28T13:59:14;9.0;31.0
26641;DHT22;14269;47.358;0.724;2023-02-28T14:02:03;10.0;30.0
26641;DHT22;14269;47.358;0.724;2023-02-28T14:05:00;10.0;28.0
26641;DHT22;14269;47.358;0.724;2023-02-28T14:07:44;10.0;30.0
26641;DHT22;14269;47.358;0.724;2023-02-28T14:10:26;10.0;30.0
26641;DHT22;14269;47.358;0.724;2023-02-28T14:13:12;9.0;31.0
26641;DHT22;14269;47.358;0.724;2023-02-28T14:15:47;8.0;32.0
26641;DHT22;14269;47.358;0.724;2023-02-28T14:18:29;8.0;32.0
26641;DHT22;14269;47.358;0.724;2023-02-28T14:21:12;10.0;30.0
26641;DHT22;14269;47.358;0.724;2023-02-28T14:24:21;11.0;29.0
26641;DHT22;14269;47.358;0.724;2023-02-28T14:27:21;11.0;28.0
26641;DHT22;14269;47.358;0.724;2023-02-28T14:30:14;12.0;28.0
26641;DHT22;14269;47.358;0.724;2023-02-28T14:33:05;11.0;28.0
26641;DHT22;14269;47.358;0.724;2023-02-28T14:35:57;9.0;29.0
26641;DHT22;14269;47.358;0.724;2023-02-28T14:38:43;9.0;31.0
26641;DHT22;14269;47.358;0.724;2023-02-28T14:41:26;11.0;28.0
26641;DHT22;14269;47.358;0.724;2023-02-28T14:44:13;12.0;27.0
26641;DHT22;14269;47.358;0.724;2023-02-28T14:46:45;12.0;26.0
26641;DHT22;14269;47.358;0.724;2023-02-28T14:49:27;12.0;26.0
26641;DHT22;14269;47.358;0.724;2023-02-28T14:52:14;12.0;25.0
26641;DHT22;14269;47.358;0.724;2023-02-28T14:54:53;12.0;26.0
26641;DHT22;14269;47.358;0.724;2023-02-28T14:57:33;11.0;26.0
26641;DHT22;14269;47.358;0.724;2023-02-28T15:00:16;10.0;29.0
26641;DHT22;14269;47.358;0.724;2023-02-28T15:02:56;10.0;30.0
26641;DHT22;14269;47.358;0.724;2023-02-28T15:05:36;9.0;31.0
26641;DHT22;14269;47.358;0.724;2023-02-28T15:08:13;9.0;31.0
26641;DHT22;14269;47.358;0.724;2023-02-28T15:10:53;10.0;30.0
26641;DHT22;14269;47.358;0.724;2023-02-28T15:13:38;11.0;29.0
26641;DHT22;14269;47.358;0.724;2023-02-28T15:16:17;11.0;29.0
26641;DHT22;14269;47.358;0.724;2023-02-28T15:18:57;10.0;30.0
26641;DHT22;14269;47.358;0.724;2023-02-28T15:21:39;10.0;30.0
26641;DHT22;14269;47.358;0.724;2023-02-28T15:24:26;9.0;30.0
26641;DHT22;14269;47.358;0.724;2023-02-28T15:27:15;8.0;31.0
26641;DHT22;14269;47.358;0.724;2023-02-28T15:29:55;8.0;31.0
26641;DHT22;14269;47.358;0.724;2023-02-28T15:32:36;8.0;32.0
26641;DHT22;14269;47.358;0.724;2023-02-28T15:35:20;9.0;32.0
26641;DHT22;14269;47.358;0.724;2023-02-28T15:38:01;10.0;30.0
26641;DHT22;14269;47.358;0.724;2023-02-28T15:40:41;9.0;30.0
26641;DHT22;14269;47.358;0.724;2023-02-28T15:43:26;8.0;31.0
26641;DHT22;14269;47.358;0.724;2023-02-28T15:46:05;8.0;31.0
26641;DHT22;14269;47.358;0.724;2023-02-28T15:48:51;8.0;32.0
26641;DHT22;14269;47.358;0.724;2023-02-28T15:51:30;8.0;32.0
26641;DHT22;14269;47.358;0.724;2023-02-28T15:54:22;9.0;30.0
26641;DHT22;14269;47.358;0.724;2023-02-28T15:57:06;9.0;31.0
26641;DHT22;14269;47.358;0.724;2023-02-28T15:59:50;9.0;30.0
26641;DHT22;14269;47.358;0.724;2023-02-28T16:02:31;9.0;29.0
26641;DHT22;14269;47.358;0.724;2023-02-28T16:05:28;8.0;30.0
26641;DHT22;14269;47.358;0.724;2023-02-28T16:08:14;8.0;32.0
26641;DHT22;14269;47.358;0.724;2023-02-28T16:10:49;8.0;32.0
26641;DHT22;14269;47.358;0.724;2023-02-28T16:13:30;7.0;31.0
26641;DHT22;14269;47.358;0.724;2023-02-28T16:16:02;7.0;31.0
26641;DHT22;14269;47.358;0.724;2023-02-28T16:18:34;7.0;32.0
26641;DHT22;14269;47.358;0.724;2023-02-28T16:21:05;7.0;31.0
26641;DHT22;14269;47.358;0.724;2023-02-28T16:23:37;8.0;31.0
26641;DHT22;14269;47.358;0.724;2023-02-28T16:26:18;7.0;32.0
26641;DHT22;14269;47.358;0.724;2023-02-28T16:28:51;7.0;32.0
26641;DHT22;14269;47.358;0.724;2023-02-28T16:31:37;7.0;32.0
26641;DHT22;14269;47.358;0.724;2023-02-28T16:34:14;7.0;33.0
26641;DHT22;14269;47.358;0.724;2023-02-28T16:36:46;7.0;32.0
26641;DHT22;14269;47.358;0.724;2023-02-28T16:39:18;7.0;33.0
26641;DHT22;14269;47.358;0.724;2023-02-28T16:41:59;7.0;33.0
26641;DHT22;14269;47.358;0.724;2023-02-28T16:44:33;7.0;33.0
26641;DHT22;14269;47.358;0.724;2023-02-28T16:47:12;7.0;34.0
26641;DHT22;14269;47.358;0.724;2023-02-28T16:49:44;7.0;33.0
26641;DHT22;14269;47.358;0.724;2023-02-28T16:52:16;7.0;33.0
26641;DHT22;14269;47.358;0.724;2023-02-28T16:54:47;7.0;33.0
26641;DHT22;14269;47.358;0.724;2023-02-28T16:57:21;7.0;33.0
26641;DHT22;14269;47.358;0.724;2023-02-28T17:00:01;7.0;33.0
26641;DHT22;14269;47.358;0.724;2023-02-28T17:02:32;7.0;34.0
26641;DHT22;14269;47.358;0.724;2023-02-28T17:05:05;7.0;34.0
26641;DHT22;14269;47.358;0.724;2023-02-28T17:07:46;7.0;34.0
26641;DHT22;14269;47.358;0.724;2023-02-28T17:10:28;7.0;33.0
26641;DHT22;14269;47.358;0.724;2023-02-28T17:12:59;7.0;34.0
26641;DHT22;14269;47.358;0.724;2023-02-28T17:15:31;7.0;34.0
26641;DHT22;14269;47.358;0.724;2023-02-28T17:18:03;7.0;34.0
26641;DHT22;14269;47.358;0.724;2023-02-28T17:20:34;7.0;34.0
26641;DHT22;14269;47.358;0.724;2023-02-28T17:23:06;7.0;34.0
26641;DHT22;14269;47.358;0.724;2023-02-28T17:25:37;6.0;35.0
26641;DHT22;14269;47.358;0.724;2023-02-28T17:28:09;6.0;34.0
26641;DHT22;14269;47.358;0.724;2023-02-28T17:30:47;7.0;34.0